createdAt,value
2022-11-26T00:02:18.177Z,14.93
2022-11-26T00:04:45.320Z,12.57
2022-11-26T00:07:14.138Z,7.00
2022-11-26T00:09:41.734Z,8.17
2022-11-26T00:12:23.782Z,7.83
2022-11-26T00:14:52.014Z,7.07
2022-11-26T00:17:20.019Z,5.47
2022-11-26T00:19:47.533Z,5.17
2022-11-26T00:22:32.201Z,5.10
2022-11-26T00:24:58.984Z,5.73
2022-11-26T00:27:27.680Z,5.70
2022-11-26T00:29:55.241Z,5.27
2022-11-26T00:32:26.073Z,9.17
2022-11-26T00:34:53.994Z,8.03
2022-11-26T00:37:20.689Z,7.70
2022-11-26T00:39:48.393Z,5.63
2022-11-26T00:42:15.199Z,4.87
2022-11-26T00:44:41.891Z,4.73
2022-11-26T00:47:10.299Z,5.27
2022-11-26T00:49:38.255Z,5.60
2022-11-26T00:52:23.524Z,5.00
2022-11-26T00:54:50.373Z,5.60
2022-11-26T00:57:17.122Z,5.00
2022-11-26T00:59:44.159Z,5.53
2022-11-26T01:02:11.097Z,5.73
2022-11-26T01:04:38.799Z,5.37
2022-11-26T01:07:05.801Z,5.20
2022-11-26T01:09:33.181Z,5.03
2022-11-26T01:12:00.000Z,4.77
2022-11-26T01:14:26.770Z,5.00
2022-11-26T01:16:56.514Z,4.47
2022-11-26T01:19:24.046Z,4.90
2022-11-26T01:21:51.015Z,4.67
2022-11-26T01:24:17.776Z,4.27
2022-11-26T01:26:45.172Z,4.83
2022-11-26T01:29:16.850Z,4.83
2022-11-26T01:31:44.192Z,4.43
2022-11-26T01:34:11.113Z,4.77
2022-11-26T01:36:40.556Z,5.13
2022-11-26T01:39:16.111Z,4.33
2022-11-26T01:41:56.922Z,5.00
2022-11-26T01:44:29.692Z,4.70
2022-11-26T01:46:58.274Z,4.40
2022-11-26T01:49:43.279Z,4.37
2022-11-26T01:52:24.924Z,4.87
2022-11-26T01:54:53.690Z,4.43
2022-11-26T01:57:30.121Z,4.67
2022-11-26T02:00:04.203Z,3.97
2022-11-26T02:02:40.571Z,4.43
2022-11-26T02:05:11.127Z,4.73
2022-11-26T02:07:39.060Z,4.80
2022-11-26T02:10:06.541Z,5.00
2022-11-26T02:12:33.709Z,4.83
2022-11-26T02:15:00.452Z,4.40
2022-11-26T02:17:55.705Z,4.70
2022-11-26T02:20:49.585Z,4.13
2022-11-26T02:23:39.030Z,3.90
2022-11-26T02:26:17.656Z,3.80
2022-11-26T02:28:59.835Z,4.10
2022-11-26T02:31:48.877Z,4.20
2022-11-26T02:34:26.580Z,4.37
2022-11-26T02:37:13.062Z,4.20
2022-11-26T02:39:40.189Z,4.80
2022-11-26T02:42:26.987Z,4.30
2022-11-26T02:44:59.694Z,4.23
2022-11-26T02:47:28.768Z,3.73
2022-11-26T02:49:58.936Z,4.57
2022-11-26T02:52:27.617Z,4.13
2022-11-26T02:54:56.741Z,4.07
2022-11-26T02:57:28.921Z,4.10
2022-11-26T02:59:56.369Z,4.60
2022-11-26T03:02:38.850Z,4.37
2022-11-26T03:05:09.491Z,4.77
2022-11-26T03:07:37.495Z,4.37
2022-11-26T03:10:05.674Z,4.10
2022-11-26T03:12:32.404Z,4.43
2022-11-26T03:14:59.236Z,4.00
2022-11-26T03:17:25.983Z,4.00
2022-11-26T03:19:53.389Z,4.00
2022-11-26T03:22:20.112Z,4.13
2022-11-26T03:24:46.863Z,4.10
2022-11-26T03:27:13.883Z,4.03
2022-11-26T03:29:40.764Z,4.20
2022-11-26T03:32:07.605Z,4.83
2022-11-26T03:34:35.035Z,4.73
2022-11-26T03:37:01.798Z,4.07
2022-11-26T03:39:28.465Z,4.10
2022-11-26T03:41:55.656Z,3.73
2022-11-26T03:44:22.483Z,4.03
2022-11-26T03:46:49.206Z,4.30
2022-11-26T03:49:15.938Z,3.80
2022-11-26T03:51:42.908Z,4.43
2022-11-26T03:54:10.253Z,4.40
2022-11-26T03:56:37.141Z,3.93
2022-11-26T03:59:04.243Z,3.60
2022-11-26T04:01:31.069Z,3.50
2022-11-26T04:03:57.973Z,4.13
2022-11-26T04:06:25.288Z,4.23
2022-11-26T04:08:51.980Z,4.17
2022-11-26T04:11:18.742Z,4.30
2022-11-26T04:13:45.760Z,3.97
2022-11-26T04:16:12.683Z,4.10
2022-11-26T04:18:40.121Z,4.07
2022-11-26T04:21:07.982Z,3.70
2022-11-26T04:23:36.529Z,3.97
2022-11-26T04:26:03.643Z,4.57
2022-11-26T04:28:30.669Z,4.23
2022-11-26T04:30:57.763Z,3.93
2022-11-26T04:33:27.334Z,3.63
2022-11-26T04:35:54.184Z,4.07
2022-11-26T04:38:25.554Z,3.60
2022-11-26T04:40:53.071Z,4.03
2022-11-26T04:43:21.639Z,4.07
2022-11-26T04:45:48.763Z,3.73
2022-11-26T04:48:15.773Z,3.63
2022-11-26T04:50:42.768Z,3.63
2022-11-26T04:53:10.316Z,3.97
2022-11-26T04:55:37.428Z,4.13
2022-11-26T04:58:04.141Z,3.97
2022-11-26T05:00:31.213Z,3.83
2022-11-26T05:02:58.138Z,4.03
2022-11-26T05:05:25.578Z,3.57
2022-11-26T05:07:52.351Z,3.77
2022-11-26T05:10:19.132Z,4.33
2022-11-26T05:12:46.169Z,3.90
2022-11-26T05:15:13.048Z,3.70
2022-11-26T05:17:40.499Z,3.43
2022-11-26T05:20:08.086Z,3.77
2022-11-26T05:22:34.925Z,3.83
2022-11-26T05:25:01.667Z,3.80
2022-11-26T05:27:28.336Z,3.83
2022-11-26T05:29:56.048Z,4.33
2022-11-26T05:32:22.712Z,3.73
2022-11-26T05:34:49.450Z,4.07
2022-11-26T05:37:16.448Z,3.80
2022-11-26T05:39:43.286Z,3.87
2022-11-26T05:42:10.902Z,3.10
2022-11-26T05:44:38.449Z,3.93
2022-11-26T05:47:05.584Z,3.93
2022-11-26T05:49:32.325Z,3.40
2022-11-26T05:51:59.402Z,2.73
2022-11-26T05:54:27.044Z,3.20
2022-11-26T05:56:59.803Z,4.07
2022-11-26T05:59:27.450Z,3.23
2022-11-26T06:01:55.007Z,3.00
2022-11-26T06:04:21.808Z,3.17
2022-11-26T06:06:48.482Z,2.53
2022-11-26T06:09:15.311Z,3.17
2022-11-26T06:11:42.135Z,2.93
2022-11-26T06:14:10.985Z,4.23
2022-11-26T06:19:10.350Z,3.30
2022-11-26T06:21:37.227Z,3.43
2022-11-26T06:24:04.250Z,3.17
2022-11-26T06:26:31.356Z,4.03
2022-11-26T06:28:58.493Z,3.20
2022-11-26T06:31:25.346Z,2.80
2022-11-26T06:33:57.021Z,3.10
2022-11-26T06:36:25.297Z,3.83
2022-11-26T06:38:52.002Z,3.30
2022-11-26T06:41:18.709Z,3.63
2022-11-26T06:43:45.583Z,3.03
2022-11-26T06:46:12.617Z,3.30
2022-11-26T06:48:40.360Z,3.23
2022-11-26T06:51:10.545Z,3.43
2022-11-26T06:53:37.498Z,3.60
2022-11-26T06:56:07.017Z,3.43
2022-11-26T06:58:33.938Z,3.17
2022-11-26T07:01:00.991Z,2.83
2022-11-26T07:03:33.144Z,3.20
2022-11-26T07:06:00.573Z,2.93
2022-11-26T07:08:27.278Z,2.70
2022-11-26T07:10:54.278Z,2.40
2022-11-26T07:13:20.997Z,3.07
2022-11-26T07:15:47.784Z,2.90
2022-11-26T07:18:14.599Z,2.97
2022-11-26T07:20:41.901Z,3.33
2022-11-26T07:23:08.607Z,3.07
2022-11-26T07:25:36.772Z,3.23
2022-11-26T07:28:03.651Z,3.43
2022-11-26T07:30:30.751Z,3.47
2022-11-26T07:32:57.488Z,3.07
2022-11-26T07:35:24.560Z,3.17
2022-11-26T07:37:51.453Z,2.77
2022-11-26T07:40:18.459Z,2.70
2022-11-26T07:42:50.389Z,3.13
2022-11-26T07:45:24.141Z,3.40
2022-11-26T07:47:50.843Z,3.63
2022-11-26T07:50:17.594Z,3.83
2022-11-26T07:52:44.520Z,3.37
2022-11-26T07:55:12.780Z,3.40
2022-11-26T07:57:39.789Z,3.20
2022-11-26T08:00:07.239Z,2.70
2022-11-26T08:02:38.645Z,3.33
2022-11-26T08:05:05.940Z,3.57
2022-11-26T08:07:32.710Z,3.50
2022-11-26T08:09:59.795Z,3.43
2022-11-26T08:12:27.241Z,3.27
2022-11-26T08:14:53.983Z,2.90
2022-11-26T08:17:20.783Z,3.30
2022-11-26T08:19:47.740Z,3.10
2022-11-26T08:22:14.735Z,3.23
2022-11-26T08:24:41.533Z,3.17
2022-11-26T08:27:08.309Z,2.87
2022-11-26T08:29:37.141Z,3.13
2022-11-26T08:32:04.310Z,2.97
2022-11-26T08:34:31.530Z,3.70
2022-11-26T08:36:58.393Z,3.73
2022-11-26T08:39:25.390Z,3.33
2022-11-26T08:41:53.263Z,3.80
2022-11-26T08:44:21.197Z,3.37
2022-11-26T08:46:48.603Z,3.80
2022-11-26T08:49:17.032Z,3.40
2022-11-26T08:51:44.652Z,3.37
2022-11-26T08:54:12.860Z,3.40
2022-11-26T08:56:39.823Z,3.03
2022-11-26T08:59:06.603Z,2.90
2022-11-26T09:01:34.179Z,2.20
2022-11-26T09:04:03.207Z,2.50
2022-11-26T09:06:31.862Z,2.10
2022-11-26T09:09:12.933Z,2.10
2022-11-26T09:11:58.084Z,2.13
2022-11-26T09:14:28.305Z,1.80
2022-11-26T09:16:57.017Z,1.77
2022-11-26T09:19:25.115Z,1.60
2022-11-26T09:21:52.043Z,2.30
2022-11-26T09:24:18.891Z,1.70
2022-11-26T09:26:46.054Z,2.37
2022-11-26T09:29:14.849Z,2.27
2022-11-26T09:32:07.534Z,1.87
2022-11-26T09:34:31.995Z,1.67
2022-11-26T09:36:58.893Z,1.80
2022-11-26T09:39:27.275Z,1.90
2022-11-26T09:42:03.890Z,1.73
2022-11-26T09:44:43.424Z,1.60
2022-11-26T09:47:13.675Z,1.87
2022-11-26T09:49:48.189Z,1.80
2022-11-26T09:52:18.637Z,2.03
2022-11-26T09:54:48.200Z,2.40
2022-11-26T09:57:21.137Z,1.93
2022-11-26T09:59:50.557Z,1.40
2022-11-26T10:02:17.509Z,1.70
2022-11-26T10:04:44.773Z,1.80
2022-11-26T10:07:35.817Z,1.50
2022-11-26T10:10:13.831Z,1.90
2022-11-26T10:13:19.799Z,2.03
2022-11-26T10:16:15.030Z,1.60
2022-11-26T10:19:14.877Z,1.70
2022-11-26T10:21:58.721Z,1.70
2022-11-26T10:24:44.242Z,1.97
2022-11-26T10:27:15.998Z,1.50
2022-11-26T10:29:48.881Z,1.60
2022-11-26T10:32:20.935Z,1.40
2022-11-26T10:34:53.837Z,1.53
2022-11-26T10:37:22.601Z,1.53
2022-11-26T10:39:59.936Z,1.37
2022-11-26T10:42:42.035Z,1.80
2022-11-26T10:45:22.502Z,1.60
2022-11-26T10:47:49.418Z,1.77
2022-11-26T10:50:46.754Z,2.13
2022-11-26T10:53:24.411Z,1.50
2022-11-26T10:55:53.853Z,1.70
2022-11-26T10:58:24.506Z,1.47
2022-11-26T11:00:51.267Z,1.37
2022-11-26T11:03:44.483Z,1.70
2022-11-26T11:06:26.509Z,1.67
2022-11-26T11:08:54.648Z,1.40
2022-11-26T11:11:31.401Z,1.40
2022-11-26T11:13:59.346Z,1.30
2022-11-26T11:16:28.269Z,1.80
2022-11-26T11:19:03.169Z,1.80
2022-11-26T11:21:35.310Z,2.30
2022-11-26T11:24:18.260Z,1.70
2022-11-26T11:26:47.908Z,1.40
2022-11-26T11:29:30.033Z,1.60
2022-11-26T11:31:58.584Z,1.70
2022-11-26T11:34:39.985Z,2.00
2022-11-26T11:37:15.787Z,1.60
2022-11-26T11:39:43.723Z,1.60
2022-11-26T11:42:40.573Z,1.67
2022-11-26T11:45:22.066Z,1.90
2022-11-26T11:47:53.029Z,1.80
2022-11-26T11:50:30.592Z,1.77
2022-11-26T11:53:24.772Z,2.17
2022-11-26T11:56:19.297Z,2.23
2022-11-26T11:59:21.696Z,1.90
2022-11-26T12:01:48.429Z,2.00
2022-11-26T12:04:31.793Z,1.80
2022-11-26T12:07:19.108Z,2.17
2022-11-26T12:10:18.230Z,2.80
2022-11-26T12:12:56.525Z,1.90
2022-11-26T12:15:34.187Z,1.83
2022-11-26T12:18:26.425Z,1.80
2022-11-26T12:21:04.378Z,1.40
2022-11-26T12:23:55.298Z,1.63
2022-11-26T12:26:33.481Z,2.40
2022-11-26T12:29:07.077Z,2.00
2022-11-26T12:31:44.576Z,2.23
2022-11-26T12:34:30.000Z,2.50
2022-11-26T12:37:07.066Z,2.53
2022-11-26T12:39:45.313Z,1.63
2022-11-26T12:42:44.843Z,2.20
2022-11-26T12:45:27.361Z,1.70
2022-11-26T12:48:00.324Z,1.60
2022-11-26T12:50:41.980Z,2.20
2022-11-26T12:53:25.357Z,1.80
2022-11-26T12:56:18.574Z,1.90
2022-11-26T12:59:07.018Z,1.43
2022-11-26T13:01:34.013Z,1.60
2022-11-26T13:04:36.039Z,1.40
2022-11-26T13:07:16.833Z,1.50
2022-11-26T13:10:03.772Z,2.80
2022-11-26T13:12:49.129Z,2.80
2022-11-26T13:15:33.738Z,2.27
2022-11-26T13:18:02.718Z,2.40
2022-11-26T13:20:55.726Z,2.30
2022-11-26T13:23:52.421Z,1.50
2022-11-26T13:26:28.045Z,1.70
2022-11-26T13:29:28.324Z,1.77
2022-11-26T13:32:18.112Z,1.80
2022-11-26T13:35:00.634Z,1.70
2022-11-26T13:38:04.005Z,1.77
2022-11-26T13:40:45.791Z,1.47
2022-11-26T13:43:35.054Z,1.73
2022-11-26T13:46:07.589Z,3.00
2022-11-26T13:48:38.146Z,3.53
2022-11-26T13:51:16.958Z,15.40
2022-11-26T13:53:50.626Z,3.87
2022-11-26T13:56:23.762Z,2.63
2022-11-26T13:59:01.343Z,2.00
2022-11-26T14:01:37.264Z,2.33
2022-11-26T14:04:27.399Z,2.30
2022-11-26T14:07:06.032Z,2.37
2022-11-26T14:09:46.529Z,2.10
2022-11-26T14:12:14.941Z,2.20
2022-11-26T14:14:42.952Z,3.30
2022-11-26T14:17:12.817Z,2.93
2022-11-26T14:19:39.468Z,2.53
2022-11-26T14:22:07.284Z,8.53
2022-11-26T14:25:06.673Z,4.83
2022-11-26T14:27:46.620Z,2.80
2022-11-26T14:30:19.107Z,6.37
2022-11-26T14:33:05.405Z,10.63
2022-11-26T14:35:35.455Z,3.13
2022-11-26T14:38:05.283Z,9.50
2022-11-26T14:40:37.663Z,3.03
2022-11-26T14:43:19.788Z,3.80
2022-11-26T14:46:12.506Z,4.40
2022-11-26T14:48:50.528Z,5.93
2022-11-26T14:51:23.701Z,13.93
2022-11-26T14:53:51.763Z,5.80
2022-11-26T14:56:21.303Z,19.17
2022-11-26T14:59:14.344Z,9.63
2022-11-26T15:01:45.366Z,8.07
2022-11-26T15:04:26.168Z,5.03
2022-11-26T15:06:52.973Z,3.50
2022-11-26T15:09:24.412Z,3.23
2022-11-26T15:12:11.416Z,3.20
2022-11-26T15:14:52.950Z,3.40
2022-11-26T15:17:22.728Z,4.00
2022-11-26T15:19:52.734Z,9.80
2022-11-26T15:22:35.615Z,9.30
2022-11-26T15:25:02.859Z,11.77
2022-11-26T15:27:53.093Z,8.13
2022-11-26T15:30:25.468Z,7.03
2022-11-26T15:32:58.315Z,30.13
2022-11-26T15:35:25.345Z,80.83
2022-11-26T15:37:52.148Z,52.13
2022-11-26T15:40:23.982Z,18.17
2022-11-26T15:42:57.939Z,4.83
2022-11-26T15:45:37.716Z,4.00
2022-11-26T15:48:05.998Z,4.23
2022-11-26T15:50:36.315Z,5.80
2022-11-26T15:53:17.048Z,5.67
2022-11-26T15:55:48.231Z,5.83
2022-11-26T15:58:39.625Z,5.00
2022-11-26T16:01:17.086Z,4.27
2022-11-26T16:03:47.297Z,5.30
2022-11-26T16:06:33.291Z,5.10
2022-11-26T16:09:02.764Z,5.80
2022-11-26T16:11:34.217Z,4.40
2022-11-26T16:14:22.674Z,4.30
2022-11-26T16:16:51.522Z,4.30
2022-11-26T16:19:22.504Z,4.73
2022-11-26T16:21:51.491Z,3.80
2022-11-26T16:24:36.259Z,4.53
2022-11-26T16:27:06.524Z,4.90
2022-11-26T16:29:36.179Z,4.57
2022-11-26T16:32:03.597Z,4.80
2022-11-26T16:34:30.831Z,4.07
2022-11-26T16:37:32.889Z,4.70
2022-11-26T16:40:02.395Z,5.07
2022-11-26T16:42:32.246Z,6.50
2022-11-26T16:45:03.959Z,6.13
2022-11-26T16:47:41.234Z,5.10
2022-11-26T16:50:26.178Z,4.83
2022-11-26T16:52:54.778Z,4.70
2022-11-26T16:55:25.549Z,5.20
2022-11-26T16:57:58.173Z,4.27
2022-11-26T17:00:26.251Z,4.83
2022-11-26T17:02:53.557Z,5.33
2022-11-26T17:05:21.542Z,5.50
2022-11-26T17:07:48.225Z,4.60
2022-11-26T17:10:21.402Z,5.40
2022-11-26T17:12:50.016Z,5.20
2022-11-26T17:15:18.428Z,5.40
2022-11-26T17:17:45.752Z,5.57
2022-11-26T17:20:20.053Z,4.90
2022-11-26T17:22:48.222Z,5.00
2022-11-26T17:25:16.012Z,5.47
2022-11-26T17:27:43.558Z,4.53
2022-11-26T17:30:28.382Z,4.67
2022-11-26T17:32:55.215Z,4.50
2022-11-26T17:35:22.022Z,4.53
2022-11-26T17:37:48.849Z,5.77
2022-11-26T17:40:19.293Z,4.87
2022-11-26T17:42:46.995Z,4.30
2022-11-26T17:45:14.580Z,4.87
2022-11-26T17:47:41.609Z,4.70
2022-11-26T17:50:21.789Z,4.97
2022-11-26T17:52:49.824Z,5.07
2022-11-26T17:55:18.837Z,4.67
2022-11-26T17:57:45.844Z,4.60
2022-11-26T18:00:15.970Z,4.67
2022-11-26T18:02:43.918Z,4.20
2022-11-26T18:05:11.286Z,4.50
2022-11-26T18:07:38.624Z,4.20
2022-11-26T18:10:08.109Z,3.80
2022-11-26T18:12:34.873Z,4.30
2022-11-26T18:15:02.257Z,4.70
2022-11-26T18:17:28.958Z,4.50
2022-11-26T18:19:56.696Z,4.57
2022-11-26T18:22:25.831Z,4.13
2022-11-26T18:24:57.297Z,4.10
2022-11-26T18:27:28.181Z,4.50
2022-11-26T18:29:54.971Z,4.07
2022-11-26T18:32:22.404Z,3.97
2022-11-26T18:34:51.011Z,4.03
2022-11-26T18:37:18.920Z,4.27
2022-11-26T18:39:45.621Z,4.50
2022-11-26T18:42:35.980Z,4.10
2022-11-26T18:45:00.139Z,4.90
2022-11-26T18:47:26.884Z,4.43
2022-11-26T18:49:53.622Z,5.00
2022-11-26T18:52:20.317Z,4.47
2022-11-26T18:54:47.833Z,4.80
2022-11-26T18:57:14.624Z,5.13
2022-11-26T18:59:41.558Z,5.50
2022-11-26T19:02:10.359Z,5.63
2022-11-26T19:04:39.002Z,6.77
2022-11-26T19:07:06.683Z,7.30
2022-11-26T19:09:34.043Z,6.17
2022-11-26T19:12:01.081Z,6.27
2022-11-26T19:14:27.780Z,5.77
2022-11-26T19:16:54.548Z,7.00
2022-11-26T19:19:21.718Z,6.23
2022-11-26T19:21:50.479Z,6.13
2022-11-26T19:24:17.920Z,6.17
2022-11-26T19:26:44.732Z,5.90
2022-11-26T19:29:12.857Z,6.27
2022-11-26T19:31:40.125Z,7.10
2022-11-26T19:34:11.677Z,7.03
2022-11-26T19:36:38.637Z,6.73
2022-11-26T19:39:06.757Z,6.80
2022-11-26T19:41:34.564Z,7.30
2022-11-26T19:44:04.241Z,7.10
2022-11-26T19:46:31.568Z,5.90
2022-11-26T19:48:58.307Z,6.57
2022-11-26T19:51:26.909Z,6.03
2022-11-26T19:53:55.765Z,6.67
2022-11-26T19:56:26.501Z,6.17
2022-11-26T19:58:54.236Z,6.00
2022-11-26T20:01:22.149Z,6.23
2022-11-26T20:03:50.575Z,5.77
2022-11-26T20:06:23.221Z,5.83
2022-11-26T20:08:50.317Z,7.83
2022-11-26T20:11:19.072Z,118.20
2022-11-26T20:13:48.359Z,80.53
2022-11-26T20:16:25.015Z,26.20
2022-11-26T20:18:52.164Z,42.93
2022-11-26T20:21:25.776Z,20.67
2022-11-26T20:23:54.287Z,11.70
2022-11-26T20:26:29.216Z,9.87
2022-11-26T20:28:59.536Z,13.80
2022-11-26T20:31:26.824Z,14.87
2022-11-26T20:33:54.378Z,11.67
2022-11-26T20:36:23.430Z,10.40
2022-11-26T20:38:58.912Z,9.33
2022-11-26T20:41:26.508Z,8.63
2022-11-26T20:43:59.073Z,7.63
2022-11-26T20:46:28.536Z,7.80
2022-11-26T20:48:56.484Z,7.57
2022-11-26T20:51:24.765Z,8.20
2022-11-26T20:53:53.569Z,7.27
2022-11-26T20:56:22.576Z,7.83
2022-11-26T20:58:51.197Z,7.03
2022-11-26T21:01:28.400Z,7.77
2022-11-26T21:03:56.294Z,7.70
2022-11-26T21:06:30.404Z,7.63
2022-11-26T21:09:00.204Z,7.90
2022-11-26T21:11:27.345Z,8.63
2022-11-26T21:13:54.252Z,8.30
2022-11-26T21:16:21.265Z,8.67
2022-11-26T21:18:48.066Z,7.97
2022-11-26T21:21:17.093Z,7.73
2022-11-26T21:23:45.166Z,8.07
2022-11-26T21:26:20.671Z,7.40
2022-11-26T21:29:05.476Z,7.20
2022-11-26T21:31:32.597Z,8.20
2022-11-26T21:34:01.489Z,7.80
2022-11-26T21:36:29.967Z,6.93
2022-11-26T21:38:56.964Z,6.73
2022-11-26T21:41:24.717Z,6.43
2022-11-26T21:43:51.820Z,7.17
2022-11-26T21:46:27.765Z,8.30
2022-11-26T21:48:56.067Z,7.80
2022-11-26T21:51:25.250Z,7.83
2022-11-26T21:53:54.279Z,7.03
2022-11-26T21:56:24.613Z,7.90
2022-11-26T21:58:51.888Z,6.87
2022-11-26T22:01:23.030Z,6.97
2022-11-26T22:03:53.120Z,6.97
2022-11-26T22:06:21.430Z,6.67
2022-11-26T22:08:48.884Z,6.70
2022-11-26T22:11:28.163Z,6.67
2022-11-26T22:13:55.244Z,7.30
2022-11-26T22:16:24.385Z,6.50
2022-11-26T22:18:53.123Z,6.40
2022-11-26T22:21:24.085Z,6.73
2022-11-26T22:23:52.078Z,6.40
2022-11-26T22:26:20.656Z,6.40
2022-11-26T22:28:49.738Z,6.70
2022-11-26T22:31:28.208Z,7.27
2022-11-26T22:34:01.390Z,6.23
2022-11-26T22:36:28.612Z,7.17
2022-11-26T22:38:55.603Z,7.00
2022-11-26T22:41:23.356Z,7.40
2022-11-26T22:43:51.192Z,7.30
2022-11-26T22:46:20.996Z,7.50
2022-11-26T22:48:53.426Z,7.43
2022-11-26T22:51:22.116Z,11.80
2022-11-26T22:53:53.646Z,14.53
2022-11-26T22:56:21.991Z,19.93
2022-11-26T22:58:50.133Z,12.33
2022-11-26T23:01:22.350Z,12.47
2022-11-26T23:03:51.380Z,10.53
2022-11-26T23:06:20.086Z,8.80
2022-11-26T23:08:47.426Z,7.90
2022-11-26T23:11:26.591Z,6.23
2022-11-26T23:13:54.677Z,7.30
2022-11-26T23:16:25.305Z,8.30
2022-11-26T23:18:54.705Z,7.70
2022-11-26T23:21:26.786Z,7.27
2022-11-26T23:23:53.851Z,6.70
2022-11-26T23:26:27.570Z,7.03
2022-11-26T23:28:56.716Z,7.03
2022-11-26T23:31:26.792Z,6.87
2022-11-26T23:33:53.947Z,6.73
2022-11-26T23:36:21.993Z,6.30
2022-11-26T23:38:48.850Z,6.77
2022-11-26T23:41:15.782Z,7.00
2022-11-26T23:43:43.012Z,6.90
2022-11-26T23:46:14.190Z,6.20
2022-11-26T23:48:41.364Z,6.23
2022-11-26T23:51:10.815Z,5.93
2022-11-26T23:53:39.009Z,6.00
2022-11-26T23:56:08.992Z,5.50
2022-11-26T23:58:35.998Z,6.00
